sensor_id;sensor_type;location;lat;lon;timestamp;temperature;humidity
7002;DHT22;3541;53.230;10.518;2023-02-28T00:01:18;1.60;99.90
7002;DHT22;3541;53.230;10.518;2023-02-28T00:03:44;1.60;99.90
7002;DHT22;3541;53.230;10.518;2023-02-28T00:06:11;1.60;99.90
7002;DHT22;3541;53.230;10.518;2023-02-28T00:08:38;1.60;99.90
7002;DHT22;3541;53.230;10.518;2023-02-28T00:11:07;1.60;99.90
7002;DHT22;3541;53.230;10.518;2023-02-28T00:13:35;1.60;99.90
7002;DHT22;3541;53.230;10.518;2023-02-28T00:16:05;1.50;99.90
7002;DHT22;3541;53.230;10.518;2023-02-28T00:18:32;1.50;99.90
7002;DHT22;3541;53.230;10.518;2023-02-28T00:20:59;1.50;99.90
7002;DHT22;3541;53.230;10.518;2023-02-28T00:23:26;1.50;99.90
7002;DHT22;3541;53.230;10.518;2023-02-28T00:25:53;1.50;99.90
7002;DHT22;3541;53.230;10.518;2023-02-28T00:28:20;1.50;99.90
7002;DHT22;3541;53.230;10.518;2023-02-28T00:30:47;1.30;99.90
7002;DHT22;3541;53.230;10.518;2023-02-28T00:33:15;1.30;99.90
7002;DHT22;3541;53.230;10.518;2023-02-28T00:35:42;1.30;99.90
7002;DHT22;3541;53.230;10.518;2023-02-28T00:38:09;1.30;99.90
7002;DHT22;3541;53.230;10.518;2023-02-28T00:40:35;1.30;99.90
7002;DHT22;3541;53.230;10.518;2023-02-28T00:43:02;1.20;99.90
7002;DHT22;3541;53.230;10.518;2023-02-28T00:45:29;1.20;99.90
7002;DHT22;3541;53.230;10.518;2023-02-28T00:47:56;1.20;99.90
7002;DHT22;3541;53.230;10.518;2023-02-28T00:50:23;1.20;99.90
7002;DHT22;3541;53.230;10.518;2023-02-28T00:52:50;1.20;99.90
7002;DHT22;3541;53.230;10.518;2023-02-28T00:55:17;1.30;99.90
7002;DHT22;3541;53.230;10.518;2023-02-28T00:57:43;1.30;99.90
7002;DHT22;3541;53.230;10.518;2023-02-28T01:00:11;1.20;99.90
7002;DHT22;3541;53.230;10.518;2023-02-28T01:02:38;1.20;99.90
7002;DHT22;3541;53.230;10.518;2023-02-28T01:05:05;1.20;99.90
7002;DHT22;3541;53.230;10.518;2023-02-28T01:07:33;1.10;99.90
7002;DHT22;3541;53.230;10.518;2023-02-28T01:10:00;1.20;99.90
7002;DHT22;3541;53.230;10.518;2023-02-28T01:12:26;1.10;99.90
7002;DHT22;3541;53.230;10.518;2023-02-28T01:14:53;1.10;99.90
7002;DHT22;3541;53.230;10.518;2023-02-28T01:17:19;1.20;99.90
7002;DHT22;3541;53.230;10.518;2023-02-28T01:19:46;1.20;99.90
7002;DHT22;3541;53.230;10.518;2023-02-28T01:22:12;1.20;99.90
7002;DHT22;3541;53.230;10.518;2023-02-28T01:24:41;1.20;99.90
7002;DHT22;3541;53.230;10.518;2023-02-28T01:27:07;1.20;99.90
7002;DHT22;3541;53.230;10.518;2023-02-28T01:29:34;1.10;99.90
7002;DHT22;3541;53.230;10.518;2023-02-28T01:32:01;1.10;99.90
7002;DHT22;3541;53.230;10.518;2023-02-28T01:34:28;1.10;99.90
7002;DHT22;3541;53.230;10.518;2023-02-28T01:36:54;1.10;99.90
7002;DHT22;3541;53.230;10.518;2023-02-28T01:39:24;1.00;99.90
7002;DHT22;3541;53.230;10.518;2023-02-28T01:41:52;1.10;99.90
7002;DHT22;3541;53.230;10.518;2023-02-28T01:44:55;1.10;99.90
7002;DHT22;3541;53.230;10.518;2023-02-28T01:47:26;1.00;99.90
7002;DHT22;3541;53.230;10.518;2023-02-28T01:49:53;1.00;99.90
7002;DHT22;3541;53.230;10.518;2023-02-28T01:52:21;1.00;99.90
7002;DHT22;3541;53.230;10.518;2023-02-28T01:54:52;0.90;99.90
7002;DHT22;3541;53.230;10.518;2023-02-28T01:57:22;0.90;99.90
7002;DHT22;3541;53.230;10.518;2023-02-28T01:59:52;0.90;99.90
7002;DHT22;3541;53.230;10.518;2023-02-28T02:02:21;0.90;99.90
7002;DHT22;3541;53.230;10.518;2023-02-28T02:04:53;0.80;99.90
7002;DHT22;3541;53.230;10.518;2023-02-28T02:07:21;0.80;99.90
7002;DHT22;3541;53.230;10.518;2023-02-28T02:09:48;0.80;99.90
7002;DHT22;3541;53.230;10.518;2023-02-28T02:12:27;0.80;99.90
7002;DHT22;3541;53.230;10.518;2023-02-28T02:15:02;0.80;99.90
7002;DHT22;3541;53.230;10.518;2023-02-28T02:17:36;0.80;99.90
7002;DHT22;3541;53.230;10.518;2023-02-28T02:20:35;0.70;99.90
7002;DHT22;3541;53.230;10.518;2023-02-28T02:26:51;0.70;99.90
7002;DHT22;3541;53.230;10.518;2023-02-28T02:29:47;0.60;99.90
7002;DHT22;3541;53.230;10.518;2023-02-28T02:35:15;0.60;99.90
7002;DHT22;3541;53.230;10.518;2023-02-28T02:37:49;0.60;99.90
7002;DHT22;3541;53.230;10.518;2023-02-28T02:40:19;0.50;99.90
7002;DHT22;3541;53.230;10.518;2023-02-28T02:42:51;0.60;99.90
7002;DHT22;3541;53.230;10.518;2023-02-28T02:45:24;0.60;99.90
7002;DHT22;3541;53.230;10.518;2023-02-28T02:47:53;0.50;99.90
7002;DHT22;3541;53.230;10.518;2023-02-28T02:50:26;0.50;99.90
7002;DHT22;3541;53.230;10.518;2023-02-28T02:52:56;0.50;99.90
7002;DHT22;3541;53.230;10.518;2023-02-28T02:55:25;0.50;99.90
7002;DHT22;3541;53.230;10.518;2023-02-28T02:57:54;0.50;99.90
7002;DHT22;3541;53.230;10.518;2023-02-28T03:00:25;0.50;99.90
7002;DHT22;3541;53.230;10.518;2023-02-28T03:02:54;0.40;99.90
7002;DHT22;3541;53.230;10.518;2023-02-28T03:05:26;0.40;99.90
7002;DHT22;3541;53.230;10.518;2023-02-28T03:07:53;0.50;99.90
7002;DHT22;3541;53.230;10.518;2023-02-28T03:10:29;0.40;99.90
7002;DHT22;3541;53.230;10.518;2023-02-28T03:13:06;0.40;99.90
7002;DHT22;3541;53.230;10.518;2023-02-28T03:15:43;0.50;99.90
7002;DHT22;3541;53.230;10.518;2023-02-28T03:18:21;0.50;99.90
7002;DHT22;3541;53.230;10.518;2023-02-28T03:20:58;0.40;99.90
7002;DHT22;3541;53.230;10.518;2023-02-28T03:23:32;0.40;99.90
7002;DHT22;3541;53.230;10.518;2023-02-28T03:26:04;0.40;99.90
7002;DHT22;3541;53.230;10.518;2023-02-28T03:28:36;0.40;99.90
7002;DHT22;3541;53.230;10.518;2023-02-28T03:31:10;0.40;99.90
7002;DHT22;3541;53.230;10.518;2023-02-28T03:33:42;0.40;99.90
7002;DHT22;3541;53.230;10.518;2023-02-28T03:36:15;0.40;99.90
7002;DHT22;3541;53.230;10.518;2023-02-28T03:38:45;0.40;99.90
7002;DHT22;3541;53.230;10.518;2023-02-28T03:41:15;0.40;99.90
7002;DHT22;3541;53.230;10.518;2023-02-28T03:43:47;0.30;99.90
7002;DHT22;3541;53.230;10.518;2023-02-28T03:46:18;0.30;99.90
7002;DHT22;3541;53.230;10.518;2023-02-28T03:48:50;0.30;99.90
7002;DHT22;3541;53.230;10.518;2023-02-28T03:51:22;0.30;99.90
7002;DHT22;3541;53.230;10.518;2023-02-28T03:53:52;0.20;99.90
7002;DHT22;3541;53.230;10.518;2023-02-28T03:56:22;0.20;99.90
7002;DHT22;3541;53.230;10.518;2023-02-28T03:58:55;0.30;99.90
7002;DHT22;3541;53.230;10.518;2023-02-28T04:01:26;0.20;99.90
7002;DHT22;3541;53.230;10.518;2023-02-28T04:03:54;0.20;99.90
7002;DHT22;3541;53.230;10.518;2023-02-28T04:06:23;0.20;99.90
7002;DHT22;3541;53.230;10.518;2023-02-28T04:08:50;0.20;99.90
7002;DHT22;3541;53.230;10.518;2023-02-28T04:11:21;0.20;99.90
7002;DHT22;3541;53.230;10.518;2023-02-28T04:13:48;0.10;99.90
7002;DHT22;3541;53.230;10.518;2023-02-28T04:16:15;0.10;99.90
7002;DHT22;3541;53.230;10.518;2023-02-28T04:18:42;0.10;99.90
7002;DHT22;3541;53.230;10.518;2023-02-28T04:21:09;0.00;99.90
7002;DHT22;3541;53.230;10.518;2023-02-28T04:23:37;0.00;99.90
7002;DHT22;3541;53.230;10.518;2023-02-28T04:26:04;0.00;99.90
7002;DHT22;3541;53.230;10.518;2023-02-28T04:28:32;0.00;99.90
7002;DHT22;3541;53.230;10.518;2023-02-28T04:31:00;0.00;99.90
7002;DHT22;3541;53.230;10.518;2023-02-28T04:33:27;0.00;99.90
7002;DHT22;3541;53.230;10.518;2023-02-28T04:36:00;0.10;99.90
7002;DHT22;3541;53.230;10.518;2023-02-28T04:38:28;0.10;99.90
7002;DHT22;3541;53.230;10.518;2023-02-28T04:40:58;0.10;99.90
7002;DHT22;3541;53.230;10.518;2023-02-28T04:43:25;0.10;99.90
7002;DHT22;3541;53.230;10.518;2023-02-28T04:45:52;0.00;99.90
7002;DHT22;3541;53.230;10.518;2023-02-28T04:48:19;0.00;99.90
7002;DHT22;3541;53.230;10.518;2023-02-28T04:50:46;0.00;99.90
7002;DHT22;3541;53.230;10.518;2023-02-28T04:53:13;0.00;99.90
7002;DHT22;3541;53.230;10.518;2023-02-28T04:55:39;-0.10;99.90
7002;DHT22;3541;53.230;10.518;2023-02-28T04:58:07;0.00;99.90
7002;DHT22;3541;53.230;10.518;2023-02-28T05:00:34;-0.10;99.90
7002;DHT22;3541;53.230;10.518;2023-02-28T05:03:01;-0.10;99.90
7002;DHT22;3541;53.230;10.518;2023-02-28T05:05:27;-0.20;99.90
7002;DHT22;3541;53.230;10.518;2023-02-28T05:07:54;-0.10;99.90
7002;DHT22;3541;53.230;10.518;2023-02-28T05:10:21;-0.20;99.90
7002;DHT22;3541;53.230;10.518;2023-02-28T05:12:48;-0.20;99.90
7002;DHT22;3541;53.230;10.518;2023-02-28T05:15:17;-0.20;99.90
7002;DHT22;3541;53.230;10.518;2023-02-28T05:17:43;-0.20;99.90
7002;DHT22;3541;53.230;10.518;2023-02-28T05:20:11;-0.30;99.90
7002;DHT22;3541;53.230;10.518;2023-02-28T05:22:38;-0.30;99.90
7002;DHT22;3541;53.230;10.518;2023-02-28T05:25:06;-0.30;99.90
7002;DHT22;3541;53.230;10.518;2023-02-28T05:27:33;-0.30;99.90
7002;DHT22;3541;53.230;10.518;2023-02-28T05:29:59;-0.30;99.90
7002;DHT22;3541;53.230;10.518;2023-02-28T05:32:30;-0.30;99.90
7002;DHT22;3541;53.230;10.518;2023-02-28T05:34:56;-0.30;99.90
7002;DHT22;3541;53.230;10.518;2023-02-28T05:37:23;-0.30;99.90
7002;DHT22;3541;53.230;10.518;2023-02-28T05:39:49;-0.30;99.90
7002;DHT22;3541;53.230;10.518;2023-02-28T05:42:16;-0.40;99.90
7002;DHT22;3541;53.230;10.518;2023-02-28T05:44:42;-0.40;99.90
7002;DHT22;3541;53.230;10.518;2023-02-28T05:47:09;-0.40;99.90
7002;DHT22;3541;53.230;10.518;2023-02-28T05:49:37;-0.40;99.90
7002;DHT22;3541;53.230;10.518;2023-02-28T05:52:03;-0.50;99.90
7002;DHT22;3541;53.230;10.518;2023-02-28T05:54:30;-0.50;99.90
7002;DHT22;3541;53.230;10.518;2023-02-28T05:56:57;-0.50;99.90
7002;DHT22;3541;53.230;10.518;2023-02-28T05:59:23;-0.50;99.90
7002;DHT22;3541;53.230;10.518;2023-02-28T06:01:50;-0.50;99.90
7002;DHT22;3541;53.230;10.518;2023-02-28T06:04:19;-0.50;99.90
7002;DHT22;3541;53.230;10.518;2023-02-28T06:06:48;-0.50;99.90
7002;DHT22;3541;53.230;10.518;2023-02-28T06:09:15;-0.60;99.90
7002;DHT22;3541;53.230;10.518;2023-02-28T06:11:43;-0.50;99.90
7002;DHT22;3541;53.230;10.518;2023-02-28T06:14:14;-0.50;99.90
7002;DHT22;3541;53.230;10.518;2023-02-28T06:16:40;-0.50;99.90
7002;DHT22;3541;53.230;10.518;2023-02-28T06:19:08;-0.60;99.90
7002;DHT22;3541;53.230;10.518;2023-02-28T06:21:35;-0.60;99.90
7002;DHT22;3541;53.230;10.518;2023-02-28T06:24:04;-0.60;99.90
7002;DHT22;3541;53.230;10.518;2023-02-28T06:26:31;-0.60;99.90
7002;DHT22;3541;53.230;10.518;2023-02-28T06:28:57;-0.60;99.90
7002;DHT22;3541;53.230;10.518;2023-02-28T06:31:24;-0.60;99.90
7002;DHT22;3541;53.230;10.518;2023-02-28T06:33:51;-0.60;99.90
7002;DHT22;3541;53.230;10.518;2023-02-28T06:36:18;-0.60;99.90
7002;DHT22;3541;53.230;10.518;2023-02-28T06:38:45;-0.60;99.90
7002;DHT22;3541;53.230;10.518;2023-02-28T06:41:17;-0.60;99.90
7002;DHT22;3541;53.230;10.518;2023-02-28T06:43:44;-0.60;99.90
7002;DHT22;3541;53.230;10.518;2023-02-28T06:46:13;-0.60;99.90
7002;DHT22;3541;53.230;10.518;2023-02-28T06:48:39;-0.60;99.90
7002;DHT22;3541;53.230;10.518;2023-02-28T06:51:10;-0.60;99.90
7002;DHT22;3541;53.230;10.518;2023-02-28T06:53:37;-0.60;99.90
7002;DHT22;3541;53.230;10.518;2023-02-28T06:56:04;-0.60;99.90
7002;DHT22;3541;53.230;10.518;2023-02-28T06:58:33;-0.50;99.90
7002;DHT22;3541;53.230;10.518;2023-02-28T07:01:00;-0.50;99.90
7002;DHT22;3541;53.230;10.518;2023-02-28T07:03:26;-0.50;99.90
7002;DHT22;3541;53.230;10.518;2023-02-28T07:05:53;-0.40;99.90
7002;DHT22;3541;53.230;10.518;2023-02-28T07:08:21;-0.40;99.90
7002;DHT22;3541;53.230;10.518;2023-02-28T07:10:51;-0.40;99.90
7002;DHT22;3541;53.230;10.518;2023-02-28T07:13:18;-0.40;99.90
7002;DHT22;3541;53.230;10.518;2023-02-28T07:15:53;-0.30;99.90
7002;DHT22;3541;53.230;10.518;2023-02-28T07:18:19;-0.30;99.90
7002;DHT22;3541;53.230;10.518;2023-02-28T07:20:46;-0.20;99.90
7002;DHT22;3541;53.230;10.518;2023-02-28T07:23:13;-0.20;99.90
7002;DHT22;3541;53.230;10.518;2023-02-28T07:25:39;-0.10;99.90
7002;DHT22;3541;53.230;10.518;2023-02-28T07:28:06;-0.10;99.90
7002;DHT22;3541;53.230;10.518;2023-02-28T07:30:32;0.00;99.90
7002;DHT22;3541;53.230;10.518;2023-02-28T07:33:00;0.00;99.90
7002;DHT22;3541;53.230;10.518;2023-02-28T07:35:27;0.10;99.90
7002;DHT22;3541;53.230;10.518;2023-02-28T07:37:54;0.10;99.90
7002;DHT22;3541;53.230;10.518;2023-02-28T07:40:20;0.20;99.90
7002;DHT22;3541;53.230;10.518;2023-02-28T07:42:47;0.20;99.90
7002;DHT22;3541;53.230;10.518;2023-02-28T07:45:13;0.30;99.90
7002;DHT22;3541;53.230;10.518;2023-02-28T07:47:41;0.30;99.90
7002;DHT22;3541;53.230;10.518;2023-02-28T07:50:12;0.40;99.90
7002;DHT22;3541;53.230;10.518;2023-02-28T07:52:39;0.40;99.90
7002;DHT22;3541;53.230;10.518;2023-02-28T07:55:07;0.50;99.90
7002;DHT22;3541;53.230;10.518;2023-02-28T07:57:35;0.60;99.90
7002;DHT22;3541;53.230;10.518;2023-02-28T08:00:03;0.70;99.90
7002;DHT22;3541;53.230;10.518;2023-02-28T08:02:29;0.80;99.90
7002;DHT22;3541;53.230;10.518;2023-02-28T08:04:56;0.80;99.90
7002;DHT22;3541;53.230;10.518;2023-02-28T08:07:24;0.90;99.90
7002;DHT22;3541;53.230;10.518;2023-02-28T08:09:50;0.90;99.90
7002;DHT22;3541;53.230;10.518;2023-02-28T08:12:17;1.00;99.90
7002;DHT22;3541;53.230;10.518;2023-02-28T08:14:44;1.10;99.90
7002;DHT22;3541;53.230;10.518;2023-02-28T08:17:11;1.20;99.90
7002;DHT22;3541;53.230;10.518;2023-02-28T08:19:37;1.20;99.90
7002;DHT22;3541;53.230;10.518;2023-02-28T08:22:04;1.30;99.90
7002;DHT22;3541;53.230;10.518;2023-02-28T08:24:32;1.40;99.90
7002;DHT22;3541;53.230;10.518;2023-02-28T08:26:59;1.40;99.90
7002;DHT22;3541;53.230;10.518;2023-02-28T08:29:26;1.50;99.90
7002;DHT22;3541;53.230;10.518;2023-02-28T08:31:53;1.50;99.90
7002;DHT22;3541;53.230;10.518;2023-02-28T08:34:19;1.60;99.90
7002;DHT22;3541;53.230;10.518;2023-02-28T08:36:46;1.70;99.90
7002;DHT22;3541;53.230;10.518;2023-02-28T08:39:12;1.70;99.90
7002;DHT22;3541;53.230;10.518;2023-02-28T08:41:42;1.80;99.90
7002;DHT22;3541;53.230;10.518;2023-02-28T08:44:09;1.90;99.90
7002;DHT22;3541;53.230;10.518;2023-02-28T08:46:35;2.00;99.90
7002;DHT22;3541;53.230;10.518;2023-02-28T08:49:02;2.00;99.90
7002;DHT22;3541;53.230;10.518;2023-02-28T08:51:29;2.10;99.90
7002;DHT22;3541;53.230;10.518;2023-02-28T08:53:58;2.20;99.90
7002;DHT22;3541;53.230;10.518;2023-02-28T08:56:26;2.30;99.90
7002;DHT22;3541;53.230;10.518;2023-02-28T08:58:55;2.30;99.90
7002;DHT22;3541;53.230;10.518;2023-02-28T09:01:24;2.40;99.90
7002;DHT22;3541;53.230;10.518;2023-02-28T09:03:52;2.40;99.90
7002;DHT22;3541;53.230;10.518;2023-02-28T09:06:21;2.50;99.90
7002;DHT22;3541;53.230;10.518;2023-02-28T09:08:48;2.60;99.90
7002;DHT22;3541;53.230;10.518;2023-02-28T09:11:16;2.60;99.90
7002;DHT22;3541;53.230;10.518;2023-02-28T09:13:44;2.70;99.90
7002;DHT22;3541;53.230;10.518;2023-02-28T09:16:13;2.80;99.90
7002;DHT22;3541;53.230;10.518;2023-02-28T09:18:41;2.80;99.90
7002;DHT22;3541;53.230;10.518;2023-02-28T09:21:10;2.90;99.90
7002;DHT22;3541;53.230;10.518;2023-02-28T09:23:39;3.00;99.90
7002;DHT22;3541;53.230;10.518;2023-02-28T09:26:06;3.10;99.90
7002;DHT22;3541;53.230;10.518;2023-02-28T09:28:33;3.10;99.90
7002;DHT22;3541;53.230;10.518;2023-02-28T09:30:59;3.20;99.90
7002;DHT22;3541;53.230;10.518;2023-02-28T09:33:27;3.20;99.90
7002;DHT22;3541;53.230;10.518;2023-02-28T09:35:58;3.30;99.90
7002;DHT22;3541;53.230;10.518;2023-02-28T09:38:25;3.30;99.90
7002;DHT22;3541;53.230;10.518;2023-02-28T09:40:54;3.40;99.90
7002;DHT22;3541;53.230;10.518;2023-02-28T09:43:25;3.40;99.90
7002;DHT22;3541;53.230;10.518;2023-02-28T09:45:56;3.50;99.90
7002;DHT22;3541;53.230;10.518;2023-02-28T09:48:29;3.50;99.90
7002;DHT22;3541;53.230;10.518;2023-02-28T09:51:02;3.60;99.90
7002;DHT22;3541;53.230;10.518;2023-02-28T09:53:31;3.70;99.90
7002;DHT22;3541;53.230;10.518;2023-02-28T09:56:02;3.70;99.90
7002;DHT22;3541;53.230;10.518;2023-02-28T09:58:33;3.80;99.90
7002;DHT22;3541;53.230;10.518;2023-02-28T10:01:07;3.80;99.90
7002;DHT22;3541;53.230;10.518;2023-02-28T10:03:39;3.90;99.90
7002;DHT22;3541;53.230;10.518;2023-02-28T10:06:11;4.00;99.90
7002;DHT22;3541;53.230;10.518;2023-02-28T10:08:42;4.10;99.90
7002;DHT22;3541;53.230;10.518;2023-02-28T10:11:13;4.20;99.90
7002;DHT22;3541;53.230;10.518;2023-02-28T10:13:49;4.40;99.90
7002;DHT22;3541;53.230;10.518;2023-02-28T10:16:23;4.40;99.90
7002;DHT22;3541;53.230;10.518;2023-02-28T10:18:56;4.40;99.90
7002;DHT22;3541;53.230;10.518;2023-02-28T10:21:28;4.50;99.90
7002;DHT22;3541;53.230;10.518;2023-02-28T10:24:02;4.60;99.90
7002;DHT22;3541;53.230;10.518;2023-02-28T10:26:31;4.60;99.90
7002;DHT22;3541;53.230;10.518;2023-02-28T10:28:58;4.60;99.90
7002;DHT22;3541;53.230;10.518;2023-02-28T10:31:24;4.80;99.90
7002;DHT22;3541;53.230;10.518;2023-02-28T10:33:52;4.80;99.90
7002;DHT22;3541;53.230;10.518;2023-02-28T10:36:20;4.80;99.90
7002;DHT22;3541;53.230;10.518;2023-02-28T10:38:47;4.90;99.90
7002;DHT22;3541;53.230;10.518;2023-02-28T10:41:16;5.00;99.90
7002;DHT22;3541;53.230;10.518;2023-02-28T10:43:52;5.00;99.90
7002;DHT22;3541;53.230;10.518;2023-02-28T10:46:19;5.10;99.90
7002;DHT22;3541;53.230;10.518;2023-02-28T10:49:01;5.10;99.90
7002;DHT22;3541;53.230;10.518;2023-02-28T10:51:35;5.20;99.90
7002;DHT22;3541;53.230;10.518;2023-02-28T10:54:03;5.20;99.90
7002;DHT22;3541;53.230;10.518;2023-02-28T10:56:30;5.20;99.90
7002;DHT22;3541;53.230;10.518;2023-02-28T10:58:59;5.20;99.90
7002;DHT22;3541;53.230;10.518;2023-02-28T11:01:36;5.30;99.90
7002;DHT22;3541;53.230;10.518;2023-02-28T11:04:16;5.40;99.90
7002;DHT22;3541;53.230;10.518;2023-02-28T11:06:44;5.50;99.90
7002;DHT22;3541;53.230;10.518;2023-02-28T11:09:19;5.50;99.90
7002;DHT22;3541;53.230;10.518;2023-02-28T11:11:49;5.60;99.90
7002;DHT22;3541;53.230;10.518;2023-02-28T11:14:20;5.70;99.90
7002;DHT22;3541;53.230;10.518;2023-02-28T11:16:47;5.80;99.90
7002;DHT22;3541;53.230;10.518;2023-02-28T11:19:19;5.80;99.90
7002;DHT22;3541;53.230;10.518;2023-02-28T11:21:52;5.90;99.90
7002;DHT22;3541;53.230;10.518;2023-02-28T11:24:23;5.90;99.90
7002;DHT22;3541;53.230;10.518;2023-02-28T11:26:50;5.90;99.90
7002;DHT22;3541;53.230;10.518;2023-02-28T11:29:20;6.10;99.90
7002;DHT22;3541;53.230;10.518;2023-02-28T11:32:13;6.20;99.90
7002;DHT22;3541;53.230;10.518;2023-02-28T11:34:44;6.30;99.90
7002;DHT22;3541;53.230;10.518;2023-02-28T11:37:13;6.40;99.90
7002;DHT22;3541;53.230;10.518;2023-02-28T11:39:41;6.50;99.90
7002;DHT22;3541;53.230;10.518;2023-02-28T11:42:25;6.50;99.90
7002;DHT22;3541;53.230;10.518;2023-02-28T11:45:07;6.50;99.90
7002;DHT22;3541;53.230;10.518;2023-02-28T11:47:42;6.50;99.90
7002;DHT22;3541;53.230;10.518;2023-02-28T11:50:21;6.60;99.90
7002;DHT22;3541;53.230;10.518;2023-02-28T11:52:53;6.60;99.90
7002;DHT22;3541;53.230;10.518;2023-02-28T11:55:24;6.70;99.90
7002;DHT22;3541;53.230;10.518;2023-02-28T11:58:01;6.70;99.90
7002;DHT22;3541;53.230;10.518;2023-02-28T12:00:43;6.80;99.90
7002;DHT22;3541;53.230;10.518;2023-02-28T12:03:19;6.90;99.90
7002;DHT22;3541;53.230;10.518;2023-02-28T12:05:56;7.10;99.90
7002;DHT22;3541;53.230;10.518;2023-02-28T12:08:37;7.20;99.90
7002;DHT22;3541;53.230;10.518;2023-02-28T12:11:12;7.20;99.90
7002;DHT22;3541;53.230;10.518;2023-02-28T12:13:48;7.30;99.90
7002;DHT22;3541;53.230;10.518;2023-02-28T12:16:36;7.40;99.90
7002;DHT22;3541;53.230;10.518;2023-02-28T12:19:17;7.50;99.90
7002;DHT22;3541;53.230;10.518;2023-02-28T12:22:09;7.50;99.90
7002;DHT22;3541;53.230;10.518;2023-02-28T12:24:46;7.40;99.90
7002;DHT22;3541;53.230;10.518;2023-02-28T12:27:17;7.40;99.90
7002;DHT22;3541;53.230;10.518;2023-02-28T12:29:49;7.50;99.90
7002;DHT22;3541;53.230;10.518;2023-02-28T12:32:18;7.50;99.90
7002;DHT22;3541;53.230;10.518;2023-02-28T12:34:49;7.70;99.90
7002;DHT22;3541;53.230;10.518;2023-02-28T12:37:20;7.80;99.90
7002;DHT22;3541;53.230;10.518;2023-02-28T12:39:53;8.00;99.90
7002;DHT22;3541;53.230;10.518;2023-02-28T12:42:24;8.00;99.90
7002;DHT22;3541;53.230;10.518;2023-02-28T12:44:58;8.10;99.90
7002;DHT22;3541;53.230;10.518;2023-02-28T12:47:25;8.20;99.90
7002;DHT22;3541;53.230;10.518;2023-02-28T12:49:55;8.30;99.90
7002;DHT22;3541;53.230;10.518;2023-02-28T12:52:30;8.30;99.90
7002;DHT22;3541;53.230;10.518;2023-02-28T12:55:02;8.20;99.90
7002;DHT22;3541;53.230;10.518;2023-02-28T12:57:36;8.30;99.90
7002;DHT22;3541;53.230;10.518;2023-02-28T13:00:11;8.50;99.90
7002;DHT22;3541;53.230;10.518;2023-02-28T13:03:06;8.50;99.90
7002;DHT22;3541;53.230;10.518;2023-02-28T13:05:49;8.70;99.90
7002;DHT22;3541;53.230;10.518;2023-02-28T13:08:50;8.70;99.90
7002;DHT22;3541;53.230;10.518;2023-02-28T13:11:24;8.70;99.90
7002;DHT22;3541;53.230;10.518;2023-02-28T13:13:58;8.60;99.90
7002;DHT22;3541;53.230;10.518;2023-02-28T13:16:25;8.60;99.90
7002;DHT22;3541;53.230;10.518;2023-02-28T13:18:52;8.60;99.90
7002;DHT22;3541;53.230;10.518;2023-02-28T13:21:23;8.70;99.90
7002;DHT22;3541;53.230;10.518;2023-02-28T13:24:04;8.80;99.90
7002;DHT22;3541;53.230;10.518;2023-02-28T13:29:35;8.80;99.90
7002;DHT22;3541;53.230;10.518;2023-02-28T13:32:31;8.80;99.90
7002;DHT22;3541;53.230;10.518;2023-02-28T13:38:33;8.90;99.90
7002;DHT22;3541;53.230;10.518;2023-02-28T13:44:07;9.00;99.90
7002;DHT22;3541;53.230;10.518;2023-02-28T13:46:36;8.90;99.90
7002;DHT22;3541;53.230;10.518;2023-02-28T13:49:19;8.80;99.90
7002;DHT22;3541;53.230;10.518;2023-02-28T13:51:47;8.80;99.90
7002;DHT22;3541;53.230;10.518;2023-02-28T13:54:22;8.90;99.90
7002;DHT22;3541;53.230;10.518;2023-02-28T13:57:00;9.00;99.90
7002;DHT22;3541;53.230;10.518;2023-02-28T13:59:34;9.00;99.90
7002;DHT22;3541;53.230;10.518;2023-02-28T14:02:28;9.10;99.90
7002;DHT22;3541;53.230;10.518;2023-02-28T14:05:04;9.20;99.90
7002;DHT22;3541;53.230;10.518;2023-02-28T14:07:44;9.20;99.90
7002;DHT22;3541;53.230;10.518;2023-02-28T14:10:24;9.10;99.90
7002;DHT22;3541;53.230;10.518;2023-02-28T14:12:59;9.10;99.90
7002;DHT22;3541;53.230;10.518;2023-02-28T14:15:36;9.10;99.90
7002;DHT22;3541;53.230;10.518;2023-02-28T14:18:14;9.20;99.90
7002;DHT22;3541;53.230;10.518;2023-02-28T14:20:43;9.20;99.90
7002;DHT22;3541;53.230;10.518;2023-02-28T14:23:19;9.20;99.90
7002;DHT22;3541;53.230;10.518;2023-02-28T14:25:55;9.20;99.90
7002;DHT22;3541;53.230;10.518;2023-02-28T14:28:49;9.20;99.90
7002;DHT22;3541;53.230;10.518;2023-02-28T14:31:23;9.30;99.90
7002;DHT22;3541;53.230;10.518;2023-02-28T14:34:03;9.30;99.90
7002;DHT22;3541;53.230;10.518;2023-02-28T14:36:33;9.30;99.90
7002;DHT22;3541;53.230;10.518;2023-02-28T14:39:05;9.40;99.90
7002;DHT22;3541;53.230;10.518;2023-02-28T14:41:34;9.40;99.90
7002;DHT22;3541;53.230;10.518;2023-02-28T14:44:12;9.40;99.90
7002;DHT22;3541;53.230;10.518;2023-02-28T14:46:41;9.50;99.90
7002;DHT22;3541;53.230;10.518;2023-02-28T14:49:18;9.50;99.90
7002;DHT22;3541;53.230;10.518;2023-02-28T14:51:45;9.70;99.90
7002;DHT22;3541;53.230;10.518;2023-02-28T14:54:15;9.80;99.90
7002;DHT22;3541;53.230;10.518;2023-02-28T14:56:42;9.80;99.90
7002;DHT22;3541;53.230;10.518;2023-02-28T14:59:24;9.90;99.90
7002;DHT22;3541;53.230;10.518;2023-02-28T15:04:34;10.00;99.90
7002;DHT22;3541;53.230;10.518;2023-02-28T15:07:10;10.10;99.90
7002;DHT22;3541;53.230;10.518;2023-02-28T15:09:37;9.90;99.90
7002;DHT22;3541;53.230;10.518;2023-02-28T15:12:04;10.00;99.90
7002;DHT22;3541;53.230;10.518;2023-02-28T15:14:31;10.10;99.90
7002;DHT22;3541;53.230;10.518;2023-02-28T15:17:01;9.90;99.90
7002;DHT22;3541;53.230;10.518;2023-02-28T15:19:30;9.70;99.90
7002;DHT22;3541;53.230;10.518;2023-02-28T15:22:01;9.90;99.90
7002;DHT22;3541;53.230;10.518;2023-02-28T15:24:35;10.00;99.90
7002;DHT22;3541;53.230;10.518;2023-02-28T15:27:04;10.30;99.90
7002;DHT22;3541;53.230;10.518;2023-02-28T15:29:37;10.40;99.90
7002;DHT22;3541;53.230;10.518;2023-02-28T15:32:23;10.20;99.90
7002;DHT22;3541;53.230;10.518;2023-02-28T15:34:50;10.30;99.90
7002;DHT22;3541;53.230;10.518;2023-02-28T15:37:29;10.60;99.90
7002;DHT22;3541;53.230;10.518;2023-02-28T15:39:57;10.60;99.90
7002;DHT22;3541;53.230;10.518;2023-02-28T15:42:28;10.50;99.90
7002;DHT22;3541;53.230;10.518;2023-02-28T15:44:55;10.60;99.90
7002;DHT22;3541;53.230;10.518;2023-02-28T15:47:26;10.70;99.50
7002;DHT22;3541;53.230;10.518;2023-02-28T15:49:55;10.90;99.00
7002;DHT22;3541;53.230;10.518;2023-02-28T15:52:27;11.20;98.70
7002;DHT22;3541;53.230;10.518;2023-02-28T15:54:54;11.40;98.60
7002;DHT22;3541;53.230;10.518;2023-02-28T15:57:23;11.70;97.90
7002;DHT22;3541;53.230;10.518;2023-02-28T15:59:53;11.60;97.00
7002;DHT22;3541;53.230;10.518;2023-02-28T16:02:22;11.60;97.20
7002;DHT22;3541;53.230;10.518;2023-02-28T16:04:59;11.70;96.20
7002;DHT22;3541;53.230;10.518;2023-02-28T16:07:26;11.70;95.20
7002;DHT22;3541;53.230;10.518;2023-02-28T16:09:53;11.80;94.70
7002;DHT22;3541;53.230;10.518;2023-02-28T16:12:20;12.10;94.70
7002;DHT22;3541;53.230;10.518;2023-02-28T16:14:52;12.10;94.60
7002;DHT22;3541;53.230;10.518;2023-02-28T16:17:21;12.30;93.60
7002;DHT22;3541;53.230;10.518;2023-02-28T16:19:48;12.40;93.10
7002;DHT22;3541;53.230;10.518;2023-02-28T16:22:16;12.70;93.70
7002;DHT22;3541;53.230;10.518;2023-02-28T16:24:43;12.80;92.20
7002;DHT22;3541;53.230;10.518;2023-02-28T16:27:17;12.90;91.80
7002;DHT22;3541;53.230;10.518;2023-02-28T16:29:45;12.80;92.20
7002;DHT22;3541;53.230;10.518;2023-02-28T16:32:14;12.80;91.50
7002;DHT22;3541;53.230;10.518;2023-02-28T16:34:41;12.50;92.10
7002;DHT22;3541;53.230;10.518;2023-02-28T16:37:12;11.90;92.20